Portada
METAR-TAF:

METAR-TAF

Aeroports :

Bombai, Índia

latitud: 19-05-53N, longitud: 072-50-02E, altitud: 4 m

Observació

L'informe es va fer fa 11 hores i 29 minuts, a les 13:00 UTC
Vent 9 kt del Oest/Nord-Oest
Temperatura 31°C
Humitat 59%
Pressió 1006 hPa
Visibilitat: 6000 m

METAR: VAJJ 211300Z 30009KT 6000 NSC 31/22 Q1006 BECMG 5000 FU

Hora: 05:59 (00:29 UTC)


TAF: manca

Observacions i pronòstics meteorològics de més de 4000 aeroports (METAR i TAF).

Les estacions disponibles són els punts grocs i vermells al mapa.

Posi el ratolí al punt desitjat per veure el nom de l'estació.

Feu clic per veure les observacions i els pronòstics meteorològics.

Per canviar el mapa: feu clic els botons verds amb una creu de color negre per apropar; al botó verd amb un guió per allunyar la imatge; o en les fletxes verdes per a mapes adjacents.


METAR-TAF: